Edgar, Nebraska
Current Conditions -  °F | °C
As of 9:15 PM on Saturday 22 Nov 2014 (Local Time) from KHJH Reporting Station
Broken Clouds Broken Clouds  
Wind Chill: 56°   Ceiling: 2600
Heat Index: 56°   Visibility: 10mi
Dew Point: 51°   Wind: 10mph
Humidity: 83%   Direction: 190°S
Pressure: 29.59"   Gusts: NA
Location:  40.37°N, 97.97°W
Report Text: KHJH 230315Z AUTO 19009KT 10SM BKN026 14/11 A2959 RMK AO2 T01350107
Loading
Personal Weather Stations






























Interactive Weather Map New forecast layout! Learn more

10-Day Weather Forecast

Advertisements
Track Severe Weather on mobile